createdAt,value
2018-04-25T00:00:23.358Z,72.43
2018-04-25T00:02:51.487Z,63.67
2018-04-25T00:05:19.702Z,69.13
2018-04-25T00:07:47.833Z,68.70
2018-04-25T00:10:15.983Z,65.53
2018-04-25T00:12:44.596Z,63.17
2018-04-25T00:15:12.744Z,63.37
2018-04-25T00:17:41.627Z,64.33
2018-04-25T00:20:09.771Z,65.83
2018-04-25T00:22:37.890Z,61.97
2018-04-25T00:25:08.021Z,69.10
2018-04-25T00:27:36.167Z,66.53
2018-04-25T00:30:04.317Z,66.80
2018-04-25T00:32:32.458Z,65.60
2018-04-25T00:35:00.609Z,63.63
2018-04-25T00:37:28.741Z,63.30
2018-04-25T00:39:56.883Z,63.90
2018-04-25T00:42:25.008Z,59.70
2018-04-25T00:44:53.919Z,68.30
2018-04-25T00:47:22.066Z,66.23
2018-04-25T00:49:50.220Z,63.70
2018-04-25T00:52:18.355Z,73.20
2018-04-25T00:54:46.498Z,61.70
2018-04-25T00:57:15.825Z,66.87
2018-04-25T00:59:43.995Z,66.03
2018-04-25T01:02:12.432Z,63.10
2018-04-25T01:04:41.711Z,64.47
2018-04-25T01:07:09.836Z,63.87
2018-04-25T01:09:39.459Z,59.37
2018-04-25T01:12:07.591Z,69.30
2018-04-25T01:14:35.739Z,64.10
2018-04-25T01:17:03.886Z,61.03
2018-04-25T01:19:32.034Z,59.00
2018-04-25T01:22:00.924Z,61.47
2018-04-25T01:24:30.348Z,62.43
2018-04-25T01:27:01.220Z,64.00
2018-04-25T01:29:29.404Z,60.77
2018-04-25T01:31:58.376Z,63.13
2018-04-25T01:34:26.519Z,64.33
2018-04-25T01:37:05.843Z,72.00
2018-04-25T01:39:41.336Z,63.70
2018-04-25T01:42:21.195Z,66.27
2018-04-25T01:44:53.831Z,63.27
2018-04-25T01:47:27.618Z,63.53
2018-04-25T01:50:21.127Z,60.90
2018-04-25T01:53:02.123Z,58.10
2018-04-25T01:55:41.975Z,58.50
2018-04-25T01:58:22.679Z,60.83
2018-04-25T02:01:02.683Z,62.67
2018-04-25T02:03:42.647Z,68.47
2018-04-25T02:06:10.799Z,64.80
2018-04-25T02:08:38.922Z,61.77
2018-04-25T02:11:07.835Z,55.80
2018-04-25T02:13:35.972Z,59.90
2018-04-25T02:16:04.134Z,58.23
2018-04-25T02:18:35.198Z,60.53
2018-04-25T02:21:04.099Z,59.43
2018-04-25T02:23:32.984Z,57.17
2018-04-25T02:26:01.903Z,60.23
2018-04-25T02:28:30.031Z,56.97
2018-04-25T02:30:58.182Z,53.83
2018-04-25T02:33:26.303Z,52.60
2018-04-25T02:35:56.440Z,50.67
2018-04-25T02:38:28.293Z,52.50
2018-04-25T02:40:56.447Z,52.77
2018-04-25T02:43:25.340Z,46.47
2018-04-25T02:45:54.254Z,43.73
2018-04-25T02:48:22.379Z,50.27
2018-04-25T02:50:50.990Z,45.87
2018-04-25T02:53:19.900Z,42.50
2018-04-25T02:55:48.079Z,42.73
2018-04-25T02:58:16.203Z,45.07
2018-04-25T03:00:44.348Z,45.50
2018-04-25T03:03:14.324Z,40.37
2018-04-25T03:05:43.244Z,40.93
2018-04-25T03:08:17.125Z,42.30
2018-04-25T03:10:47.899Z,39.80
2018-04-25T03:13:16.519Z,36.13
2018-04-25T03:15:44.675Z,39.03
2018-04-25T03:18:12.805Z,34.43
2018-04-25T03:20:42.425Z,38.03
2018-04-25T03:23:10.564Z,35.20
2018-04-25T03:25:39.457Z,28.47
2018-04-25T03:28:08.374Z,30.37
2018-04-25T03:30:36.490Z,30.33
2018-04-25T03:33:04.646Z,28.30
2018-04-25T03:35:32.793Z,35.17
2018-04-25T03:38:00.948Z,27.67
2018-04-25T03:40:29.841Z,33.53
2018-04-25T03:42:58.760Z,30.67
2018-04-25T03:45:26.875Z,29.13
2018-04-25T03:47:55.027Z,29.13
2018-04-25T03:50:23.159Z,26.43
2018-04-25T03:52:51.316Z,26.80
2018-04-25T03:58:20.619Z,29.80
2018-04-25T04:00:48.748Z,29.30
2018-04-25T04:03:19.496Z,26.27
2018-04-25T04:05:47.622Z,28.03
2018-04-25T04:08:15.779Z,29.43
2018-04-25T04:10:44.698Z,21.13
2018-04-25T04:13:13.612Z,18.03
2018-04-25T04:15:42.254Z,27.57
2018-04-25T04:18:10.404Z,26.90
2018-04-25T04:20:38.530Z,20.63
2018-04-25T04:23:07.039Z,22.90
2018-04-25T04:25:35.168Z,25.80
2018-04-25T04:28:03.463Z,19.23
2018-04-25T04:33:39.949Z,22.60
2018-04-25T04:36:10.607Z,19.60
2018-04-25T04:38:38.742Z,17.13
2018-04-25T04:41:06.880Z,17.83
2018-04-25T04:43:34.991Z,16.60
2018-04-25T04:46:03.189Z,17.87
2018-04-25T04:48:32.402Z,23.60
2018-04-25T04:51:00.525Z,21.00
2018-04-25T04:53:28.860Z,19.27
2018-04-25T04:55:56.983Z,16.87
2018-04-25T04:58:25.120Z,16.47
2018-04-25T05:00:54.644Z,20.60
2018-04-25T05:03:23.673Z,16.87
2018-04-25T05:05:54.269Z,13.70
2018-04-25T05:08:22.473Z,16.37
2018-04-25T05:10:50.545Z,17.67
2018-04-25T05:13:18.697Z,15.10
2018-04-25T05:15:46.794Z,12.53
2018-04-25T05:18:14.926Z,18.10
2018-04-25T05:20:43.035Z,17.80
2018-04-25T05:23:11.162Z,12.60
2018-04-25T05:25:39.265Z,11.83
2018-04-25T05:28:07.410Z,16.97
2018-04-25T05:30:36.273Z,13.70
2018-04-25T05:33:04.457Z,13.33
2018-04-25T05:35:32.556Z,13.03
2018-04-25T05:38:00.686Z,14.77
2018-04-25T05:40:29.705Z,12.80
2018-04-25T05:42:57.880Z,15.17
2018-04-25T05:45:26.910Z,16.57
2018-04-25T05:47:55.038Z,15.67
2018-04-25T05:50:23.478Z,23.13
2018-04-25T05:52:51.622Z,18.20
2018-04-25T05:55:19.725Z,15.10
2018-04-25T05:57:47.878Z,13.53
2018-04-25T06:00:15.995Z,12.10
2018-04-25T06:02:45.716Z,14.13
2018-04-25T06:05:16.308Z,16.33
2018-04-25T06:07:44.442Z,10.10
2018-04-25T06:10:12.556Z,11.83
2018-04-25T06:12:40.700Z,11.97
2018-04-25T06:15:08.812Z,10.20
2018-04-25T06:17:36.952Z,12.53
2018-04-25T06:20:05.064Z,11.37
2018-04-25T06:22:33.963Z,11.07
2018-04-25T06:25:03.356Z,11.83
2018-04-25T06:27:32.251Z,14.87
2018-04-25T06:30:01.144Z,8.97
2018-04-25T06:32:30.612Z,9.80
2018-04-25T06:34:59.972Z,9.23
2018-04-25T06:37:29.361Z,11.33
2018-04-25T06:39:58.728Z,11.43
2018-04-25T06:42:28.121Z,13.87
2018-04-25T06:44:58.124Z,11.07
2018-04-25T06:47:29.453Z,10.23
2018-04-25T06:49:59.730Z,11.37
2018-04-25T06:52:29.118Z,11.77
2018-04-25T06:54:58.485Z,11.70
2018-04-25T06:57:27.885Z,11.13
2018-04-25T06:59:57.256Z,9.00
2018-04-25T07:02:26.748Z,13.23
2018-04-25T07:04:56.116Z,12.40
2018-04-25T07:07:25.509Z,9.93
2018-04-25T07:09:54.866Z,16.50
2018-04-25T07:12:29.253Z,15.83
2018-04-25T07:14:58.621Z,15.60
2018-04-25T07:17:29.930Z,12.83
2018-04-25T07:19:59.308Z,15.00
2018-04-25T07:22:28.706Z,20.30
2018-04-25T07:24:58.075Z,17.10
2018-04-25T07:27:27.478Z,16.33
2018-04-25T07:29:56.853Z,25.10
2018-04-25T07:32:26.254Z,13.00
2018-04-25T07:34:56.872Z,12.80
2018-04-25T07:37:26.273Z,14.20
2018-04-25T07:39:55.645Z,22.27
2018-04-25T07:42:25.050Z,17.27
2018-04-25T07:44:54.416Z,17.97
2018-04-25T07:47:23.821Z,14.13
2018-04-25T07:49:53.828Z,14.83
2018-04-25T07:52:23.219Z,14.67
2018-04-25T07:54:53.215Z,14.33
2018-04-25T07:57:22.615Z,16.20
2018-04-25T07:59:55.672Z,15.20
2018-04-25T08:02:26.290Z,16.90
2018-04-25T08:04:56.559Z,16.13
2018-04-25T08:07:26.618Z,13.37
2018-04-25T08:09:55.992Z,17.73
2018-04-25T08:12:31.720Z,16.60
2018-04-25T08:15:07.005Z,12.17
2018-04-25T08:17:45.691Z,11.30
2018-04-25T08:20:23.413Z,11.67
2018-04-25T08:22:52.797Z,14.43
2018-04-25T08:25:22.174Z,11.60
2018-04-25T08:27:52.797Z,13.30
2018-04-25T08:30:22.162Z,9.97
2018-04-25T08:32:56.382Z,13.37
2018-04-25T08:35:25.751Z,11.77
2018-04-25T08:37:57.048Z,11.23
2018-04-25T08:40:26.421Z,9.67
2018-04-25T08:42:55.810Z,5.30
2018-04-25T08:45:25.197Z,5.80
2018-04-25T08:47:54.552Z,4.33
2018-04-25T08:50:23.941Z,5.00
2018-04-25T08:52:53.840Z,5.57
2018-04-25T08:55:23.233Z,3.47
2018-04-25T08:57:53.336Z,3.40
2018-04-25T09:00:22.734Z,3.87
2018-04-25T09:02:52.092Z,3.57
2018-04-25T09:05:21.481Z,3.97
2018-04-25T09:07:51.639Z,2.63
2018-04-25T09:10:21.028Z,5.10
2018-04-25T09:12:51.183Z,4.67
2018-04-25T09:15:20.581Z,3.70
2018-04-25T09:17:49.942Z,5.57
2018-04-25T09:20:19.420Z,4.50
2018-04-25T09:22:48.713Z,5.70
2018-04-25T09:25:18.098Z,5.43
2018-04-25T09:27:47.971Z,4.97
2018-04-25T09:30:17.358Z,7.37
2018-04-25T09:32:46.724Z,4.70
2018-04-25T09:35:16.125Z,6.13
2018-04-25T09:37:45.483Z,5.30
2018-04-25T09:40:14.861Z,4.90
2018-04-25T09:42:44.225Z,5.87
2018-04-25T09:45:13.615Z,7.07
2018-04-25T09:47:42.996Z,5.80
2018-04-25T09:50:12.380Z,5.17
2018-04-25T09:52:41.752Z,8.20
2018-04-25T09:55:11.143Z,9.17
2018-04-25T09:57:41.232Z,6.23
2018-04-25T10:00:11.819Z,5.80
2018-04-25T10:02:41.173Z,4.93
2018-04-25T10:05:10.569Z,5.70
2018-04-25T10:07:39.930Z,5.70
2018-04-25T10:10:09.834Z,8.83
2018-04-25T10:12:39.186Z,7.10
2018-04-25T10:15:08.569Z,6.23
2018-04-25T10:17:37.946Z,5.83
2018-04-25T10:20:08.205Z,7.53
2018-04-25T10:22:37.564Z,4.33
2018-04-25T10:25:06.954Z,4.80
2018-04-25T10:27:36.308Z,5.00
2018-04-25T10:30:05.701Z,4.30
2018-04-25T10:32:35.070Z,8.40
2018-04-25T10:35:04.452Z,3.97
2018-04-25T10:37:34.441Z,7.13
2018-04-25T10:40:03.831Z,6.10
2018-04-25T10:42:33.216Z,7.80
2018-04-25T10:45:03.465Z,8.53
2018-04-25T10:47:32.816Z,6.60
2018-04-25T10:50:02.216Z,7.13
2018-04-25T10:52:31.570Z,8.60
2018-04-25T10:55:03.045Z,5.67
2018-04-25T10:57:32.405Z,6.00
2018-04-25T11:00:01.902Z,7.77
2018-04-25T11:02:31.303Z,5.60
2018-04-25T11:05:00.713Z,9.93
2018-04-25T11:07:31.079Z,6.77
2018-04-25T11:10:05.164Z,5.93
2018-04-25T11:12:34.528Z,7.93
2018-04-25T11:15:05.175Z,7.70
2018-04-25T11:17:35.031Z,7.83
2018-04-25T11:20:05.064Z,6.97
2018-04-25T11:22:34.430Z,7.23
2018-04-25T11:25:03.821Z,8.53
2018-04-25T11:27:33.197Z,9.20
2018-04-25T11:30:02.717Z,10.87
2018-04-25T11:32:32.083Z,6.13
2018-04-25T11:35:01.512Z,7.30
2018-04-25T11:37:31.038Z,6.90
2018-04-25T11:40:00.421Z,4.43
2018-04-25T11:42:31.681Z,5.47
2018-04-25T11:45:01.069Z,6.73
2018-04-25T11:47:30.441Z,5.20
2018-04-25T11:49:59.825Z,7.17
2018-04-25T11:52:29.188Z,4.77
2018-04-25T11:54:58.573Z,6.37
2018-04-25T11:57:27.935Z,8.13
2018-04-25T11:59:57.325Z,6.50
2018-04-25T12:02:26.680Z,6.60
2018-04-25T12:04:56.102Z,7.73
2018-04-25T12:07:25.477Z,8.23
2018-04-25T12:09:54.866Z,9.47
2018-04-25T12:12:24.235Z,10.53
2018-04-25T12:14:53.621Z,7.27
2018-04-25T12:17:22.991Z,5.80
2018-04-25T12:19:53.056Z,4.93
2018-04-25T12:22:23.364Z,6.53
2018-04-25T12:24:53.401Z,6.20
2018-04-25T12:27:24.173Z,7.20
2018-04-25T12:29:53.557Z,5.97
2018-04-25T12:32:22.921Z,6.50
2018-04-25T12:34:52.300Z,5.90
2018-04-25T12:37:21.665Z,6.97
2018-04-25T12:39:51.053Z,6.03
2018-04-25T12:42:21.146Z,6.87
2018-04-25T12:44:50.526Z,7.40
2018-04-25T12:47:19.904Z,6.67
2018-04-25T12:49:49.361Z,6.93
2018-04-25T12:52:18.719Z,7.73
2018-04-25T12:54:48.118Z,9.10
2018-04-25T12:57:17.782Z,5.23
2018-04-25T12:59:47.387Z,5.57
2018-04-25T13:02:16.883Z,6.70
2018-04-25T13:04:47.761Z,7.00
2018-04-25T13:07:17.152Z,7.27
2018-04-25T13:09:46.539Z,4.33
2018-04-25T13:12:15.946Z,5.00
2018-04-25T13:14:45.959Z,6.10
2018-04-25T13:17:15.950Z,6.83
2018-04-25T13:19:45.328Z,6.47
2018-04-25T13:22:14.696Z,8.10
2018-04-25T13:24:44.109Z,9.33
2018-04-25T13:27:13.491Z,5.83
2018-04-25T13:29:42.852Z,9.40
2018-04-25T13:32:12.244Z,19.40
2018-04-25T13:34:41.609Z,5.57
2018-04-25T13:37:11.634Z,6.63
2018-04-25T13:39:41.630Z,7.00
2018-04-25T13:42:11.018Z,9.23
2018-04-25T13:44:41.616Z,8.23
2018-04-25T13:47:12.329Z,8.63
2018-04-25T13:49:42.446Z,8.37
2018-04-25T13:52:11.823Z,7.40
2018-04-25T13:54:42.428Z,8.17
2018-04-25T13:57:11.821Z,5.03
2018-04-25T13:59:41.179Z,5.43
2018-04-25T14:02:11.281Z,13.80
2018-04-25T14:04:40.712Z,8.23
2018-04-25T14:07:10.996Z,10.20
2018-04-25T14:09:40.357Z,6.17
2018-04-25T14:12:10.542Z,8.70
2018-04-25T14:14:39.902Z,7.67
2018-04-25T14:17:10.057Z,10.70
2018-04-25T14:19:39.424Z,8.90
2018-04-25T14:22:08.823Z,8.50
2018-04-25T14:24:40.123Z,5.27
2018-04-25T14:27:09.489Z,5.57
2018-04-25T14:29:40.164Z,13.50
2018-04-25T14:32:09.582Z,8.53
2018-04-25T14:34:38.952Z,5.07
2018-04-25T14:37:08.358Z,7.90
2018-04-25T14:39:37.721Z,11.77
2018-04-25T14:42:07.133Z,4.80
2018-04-25T14:44:37.022Z,12.23
2018-04-25T14:47:06.416Z,7.83
2018-04-25T14:49:39.413Z,6.33
2018-04-25T14:52:08.822Z,8.73
2018-04-25T14:54:38.326Z,5.80
2018-04-25T14:57:07.808Z,9.43
2018-04-25T14:59:37.183Z,7.60
2018-04-25T15:02:06.569Z,7.23
2018-04-25T15:04:35.929Z,6.67
2018-04-25T15:07:05.358Z,8.03
2018-04-25T15:09:34.715Z,6.33
2018-04-25T15:12:04.216Z,5.50
2018-04-25T15:14:34.518Z,7.50
2018-04-25T15:17:05.386Z,6.60
2018-04-25T15:19:35.375Z,8.53
2018-04-25T15:22:04.763Z,6.83
2018-04-25T15:24:34.128Z,5.47
2018-04-25T15:27:03.716Z,5.77
2018-04-25T15:29:33.080Z,7.07
2018-04-25T15:32:02.738Z,6.10
2018-04-25T15:34:32.168Z,5.47
2018-04-25T15:37:01.594Z,6.47
2018-04-25T15:39:30.968Z,6.70
2018-04-25T15:42:00.349Z,6.10
2018-04-25T15:44:29.726Z,9.60
2018-04-25T15:46:59.909Z,6.73
2018-04-25T15:49:29.276Z,7.23
2018-04-25T15:51:59.438Z,8.93
2018-04-25T15:54:28.870Z,7.93
2018-04-25T15:56:59.413Z,6.77
2018-04-25T15:59:28.781Z,5.90
2018-04-25T16:01:58.165Z,7.70
2018-04-25T16:04:28.647Z,5.80
2018-04-25T16:06:58.133Z,8.37
2018-04-25T16:09:27.506Z,9.00
2018-04-25T16:11:57.692Z,7.20
2018-04-25T16:14:27.098Z,7.83
2018-04-25T16:16:56.484Z,7.10
2018-04-25T16:19:26.688Z,8.40
2018-04-25T16:21:56.100Z,11.50
2018-04-25T16:24:26.139Z,11.00
2018-04-25T16:26:56.968Z,12.97
2018-04-25T16:29:27.678Z,8.27
2018-04-25T16:31:57.873Z,8.73
2018-04-25T16:34:28.243Z,6.73
2018-04-25T16:36:58.166Z,6.83
2018-04-25T16:39:28.073Z,7.40
2018-04-25T16:41:57.465Z,7.30
2018-04-25T16:44:27.420Z,8.40
2018-04-25T16:46:56.804Z,9.07
2018-04-25T16:49:26.169Z,7.23
2018-04-25T16:51:55.560Z,15.27
2018-04-25T16:54:24.944Z,6.93
2018-04-25T16:56:54.446Z,6.70
2018-04-25T16:59:23.826Z,14.87
2018-04-25T17:01:54.116Z,7.20
2018-04-25T17:04:23.480Z,8.13
2018-04-25T17:06:52.861Z,6.87
2018-04-25T17:09:22.212Z,7.87
2018-04-25T17:14:59.676Z,7.63
2018-04-25T17:17:29.685Z,10.83
2018-04-25T17:19:59.152Z,6.37
2018-04-25T17:22:28.557Z,6.90
2018-04-25T17:24:57.925Z,6.47
2018-04-25T17:27:28.153Z,8.70
2018-04-25T17:29:57.512Z,5.63
2018-04-25T17:32:26.968Z,8.93
2018-04-25T17:34:56.336Z,7.97
2018-04-25T17:37:25.745Z,10.93
2018-04-25T17:39:55.888Z,7.37
2018-04-25T17:42:25.273Z,8.90
2018-04-25T17:44:55.253Z,12.10
2018-04-25T17:47:24.644Z,9.17
2018-04-25T17:49:54.907Z,7.97
2018-04-25T17:52:24.300Z,7.70
2018-04-25T17:54:54.459Z,9.13
2018-04-25T17:57:23.864Z,9.47
2018-04-25T17:59:53.215Z,6.67
2018-04-25T18:02:23.245Z,7.67
2018-04-25T18:04:52.620Z,10.07
2018-04-25T18:07:22.001Z,8.57
2018-04-25T18:09:51.371Z,8.90
2018-04-25T18:12:20.766Z,6.10
2018-04-25T18:14:51.078Z,9.17
2018-04-25T18:17:22.977Z,6.63
2018-04-25T18:19:54.300Z,7.00
2018-04-25T18:22:23.776Z,6.20
2018-04-25T18:24:53.070Z,7.70
2018-04-25T18:27:22.452Z,9.67
2018-04-25T18:29:51.812Z,6.50
2018-04-25T18:32:21.200Z,7.73
2018-04-25T18:34:50.565Z,9.73
2018-04-25T18:37:20.007Z,8.73
2018-04-25T18:39:49.437Z,9.00
2018-04-25T18:45:23.876Z,7.73
2018-04-25T18:47:53.242Z,8.00
2018-04-25T18:50:22.673Z,7.93
2018-04-25T18:52:52.394Z,7.60
2018-04-25T18:55:21.765Z,6.47
2018-04-25T18:57:51.135Z,8.00
2018-04-25T19:00:20.496Z,6.40
2018-04-25T19:02:50.018Z,9.00
2018-04-25T19:05:19.368Z,6.93
2018-04-25T19:07:49.251Z,8.17
2018-04-25T19:10:18.604Z,6.90
2018-04-25T19:12:49.240Z,7.23
2018-04-25T19:15:18.684Z,5.90
2018-04-25T19:17:48.001Z,6.97
2018-04-25T19:20:17.361Z,6.03
2018-04-25T19:22:46.744Z,5.93
2018-04-25T19:25:16.109Z,6.23
2018-04-25T19:27:45.492Z,5.33
2018-04-25T19:30:14.852Z,6.20
2018-04-25T19:32:44.328Z,6.30
2018-04-25T19:35:13.674Z,7.10
2018-04-25T19:37:44.184Z,10.63
2018-04-25T19:40:13.540Z,5.73
2018-04-25T19:42:42.921Z,6.00
2018-04-25T19:45:13.123Z,7.03
2018-04-25T19:47:42.499Z,5.73
2018-04-25T19:50:11.942Z,6.20
2018-04-25T19:52:41.259Z,7.73
2018-04-25T19:55:11.480Z,7.40
2018-04-25T19:57:41.131Z,8.30
2018-04-25T20:00:10.502Z,4.83
2018-04-25T20:02:39.881Z,5.37
2018-04-25T20:05:09.251Z,7.87
2018-04-25T20:07:38.636Z,6.80
2018-04-25T20:10:08.015Z,7.90
2018-04-25T20:12:37.383Z,9.00
2018-04-25T20:15:06.744Z,9.07
2018-04-25T20:17:36.143Z,8.23
2018-04-25T20:20:05.584Z,5.97
2018-04-25T20:22:37.680Z,7.97
2018-04-25T20:25:07.044Z,8.77
2018-04-25T20:27:36.425Z,7.57
2018-04-25T20:30:06.406Z,5.60
2018-04-25T20:32:35.781Z,5.67
2018-04-25T20:35:05.146Z,6.17
2018-04-25T20:37:34.555Z,8.00
2018-04-25T20:40:04.010Z,7.63
2018-04-25T20:42:33.396Z,6.87
2018-04-25T20:45:02.831Z,10.60
2018-04-25T20:47:32.209Z,6.90
2018-04-25T20:50:01.735Z,10.00
2018-04-25T20:52:30.928Z,5.90
2018-04-25T20:54:59.021Z,6.57
2018-04-25T20:57:27.150Z,6.80
2018-04-25T20:59:56.020Z,6.70
2018-04-25T21:02:24.200Z,10.83
2018-04-25T21:04:52.248Z,8.77
2018-04-25T21:07:20.389Z,9.03
2018-04-25T21:09:48.492Z,7.03
2018-04-25T21:12:16.618Z,8.53
2018-04-25T21:14:44.725Z,9.80
2018-04-25T21:17:12.866Z,5.10
2018-04-25T21:19:41.816Z,8.07
2018-04-25T21:22:09.953Z,7.87
2018-04-25T21:24:38.082Z,7.53
2018-04-25T21:27:06.950Z,8.03
2018-04-25T21:29:35.074Z,5.63
2018-04-25T21:32:03.996Z,7.83
2018-04-25T21:34:32.627Z,7.60
2018-04-25T21:37:01.450Z,6.37
2018-04-25T21:39:29.578Z,7.93
2018-04-25T21:42:00.824Z,7.40
2018-04-25T21:44:28.943Z,8.73
2018-04-25T21:46:57.042Z,8.70
2018-04-25T21:49:25.165Z,8.87
2018-04-25T21:51:54.020Z,8.73
2018-04-25T21:54:22.137Z,8.10
2018-04-25T21:56:50.245Z,8.53
2018-04-25T21:59:18.366Z,9.40
2018-04-25T22:01:47.225Z,9.30
2018-04-25T22:04:15.357Z,8.13
2018-04-25T22:06:43.464Z,9.00
2018-04-25T22:09:11.590Z,7.27
2018-04-25T22:11:40.449Z,9.40
2018-04-25T22:14:09.872Z,12.50
2018-04-25T22:16:38.737Z,11.10
2018-04-25T22:19:06.866Z,11.33
2018-04-25T22:21:34.976Z,12.63
2018-04-25T22:24:03.291Z,7.97
2018-04-25T22:26:32.160Z,13.23
2018-04-25T22:29:02.022Z,9.57
2018-04-25T22:31:31.578Z,10.73
2018-04-25T22:33:59.708Z,8.87
2018-04-25T22:36:27.794Z,8.63
2018-04-25T22:38:55.909Z,11.30
2018-04-25T22:41:24.009Z,15.13
2018-04-25T22:43:52.884Z,9.67
2018-04-25T22:46:21.756Z,12.43
2018-04-25T22:48:50.671Z,12.43
2018-04-25T22:51:18.747Z,8.00
2018-04-25T22:53:47.632Z,8.00
2018-04-25T22:56:16.497Z,12.43
2018-04-25T22:58:44.615Z,12.10
2018-04-25T23:01:12.716Z,12.27
2018-04-25T23:03:40.841Z,12.53
2018-04-25T23:06:10.447Z,18.00
2018-04-25T23:08:39.333Z,11.90
2018-04-25T23:11:08.242Z,11.63
2018-04-25T23:13:37.123Z,10.57
2018-04-25T23:16:05.993Z,11.23
2018-04-25T23:18:34.117Z,16.13
2018-04-25T23:21:04.099Z,12.10
2018-04-25T23:23:32.237Z,14.37
2018-04-25T23:26:00.333Z,11.40
2018-04-25T23:28:28.469Z,13.40
2018-04-25T23:30:57.173Z,11.73
2018-04-25T23:33:25.296Z,12.83
2018-04-25T23:35:54.237Z,11.57
2018-04-25T23:38:22.357Z,11.23
2018-04-25T23:40:50.469Z,13.57
2018-04-25T23:43:18.601Z,12.20
2018-04-25T23:45:46.785Z,11.33
2018-04-25T23:48:14.860Z,13.60
2018-04-25T23:50:42.970Z,13.07
2018-04-25T23:53:11.093Z,10.40
2018-04-25T23:55:41.177Z,10.10
2018-04-25T23:58:09.807Z,13.00
